sensor_id;sensor_type;location;lat;lon;timestamp;P1;durP1;ratioP1;P2;durP2;ratioP2
3307;SDS011;1666;48.898;9.182;2023-02-05T00:00:23;13.82;;;7.47;;
3307;SDS011;1666;48.898;9.182;2023-02-05T00:02:53;14.25;;;7.63;;
3307;SDS011;1666;48.898;9.182;2023-02-05T00:05:23;14.32;;;7.82;;
3307;SDS011;1666;48.898;9.182;2023-02-05T00:07:53;17.23;;;7.95;;
3307;SDS011;1666;48.898;9.182;2023-02-05T00:10:23;14.68;;;7.95;;
3307;SDS011;1666;48.898;9.182;2023-02-05T00:12:55;15.88;;;9.00;;
3307;SDS011;1666;48.898;9.182;2023-02-05T00:15:25;15.10;;;8.32;;
3307;SDS011;1666;48.898;9.182;2023-02-05T00:17:55;13.95;;;8.45;;
3307;SDS011;1666;48.898;9.182;2023-02-05T00:20:25;17.27;;;9.38;;
3307;SDS011;1666;48.898;9.182;2023-02-05T00:22:54;11.80;;;8.20;;
3307;SDS011;1666;48.898;9.182;2023-02-05T00:25:24;19.88;;;9.60;;
3307;SDS011;1666;48.898;9.182;2023-02-05T00:27:57;16.00;;;9.00;;
3307;SDS011;1666;48.898;9.182;2023-02-05T00:30:27;14.85;;;9.07;;
3307;SDS011;1666;48.898;9.182;2023-02-05T00:32:57;17.40;;;9.88;;
3307;SDS011;1666;48.898;9.182;2023-02-05T00:35:27;19.77;;;9.90;;
3307;SDS011;1666;48.898;9.182;2023-02-05T00:37:58;15.90;;;8.90;;
3307;SDS011;1666;48.898;9.182;2023-02-05T00:40:28;18.42;;;8.75;;
3307;SDS011;1666;48.898;9.182;2023-02-05T00:43:00;18.55;;;8.82;;
3307;SDS011;1666;48.898;9.182;2023-02-05T00:45:30;17.58;;;8.93;;
3307;SDS011;1666;48.898;9.182;2023-02-05T00:48:01;16.35;;;8.70;;
3307;SDS011;1666;48.898;9.182;2023-02-05T00:50:31;19.10;;;9.52;;
3307;SDS011;1666;48.898;9.182;2023-02-05T00:53:02;14.13;;;8.45;;
3307;SDS011;1666;48.898;9.182;2023-02-05T00:55:31;13.38;;;8.35;;
3307;SDS011;1666;48.898;9.182;2023-02-05T00:58:04;16.40;;;8.35;;
3307;SDS011;1666;48.898;9.182;2023-02-05T01:00:34;17.25;;;8.93;;
3307;SDS011;1666;48.898;9.182;2023-02-05T01:03:04;13.65;;;8.38;;
3307;SDS011;1666;48.898;9.182;2023-02-05T01:05:34;15.73;;;8.68;;
3307;SDS011;1666;48.898;9.182;2023-02-05T01:08:05;19.67;;;9.00;;
3307;SDS011;1666;48.898;9.182;2023-02-05T01:10:35;15.63;;;8.82;;
3307;SDS011;1666;48.898;9.182;2023-02-05T01:13:08;16.38;;;8.77;;
3307;SDS011;1666;48.898;9.182;2023-02-05T01:15:40;14.00;;;8.98;;
3307;SDS011;1666;48.898;9.182;2023-02-05T01:18:10;15.00;;;9.15;;
3307;SDS011;1666;48.898;9.182;2023-02-05T01:20:41;18.52;;;9.05;;
3307;SDS011;1666;48.898;9.182;2023-02-05T01:23:11;14.27;;;8.10;;
3307;SDS011;1666;48.898;9.182;2023-02-05T01:25:41;14.00;;;7.28;;
3307;SDS011;1666;48.898;9.182;2023-02-05T01:28:14;13.75;;;7.78;;
3307;SDS011;1666;48.898;9.182;2023-02-05T01:30:45;10.82;;;6.70;;
3307;SDS011;1666;48.898;9.182;2023-02-05T01:33:16;13.02;;;7.88;;
3307;SDS011;1666;48.898;9.182;2023-02-05T01:35:46;12.88;;;7.15;;
3307;SDS011;1666;48.898;9.182;2023-02-05T01:38:15;14.88;;;8.30;;
3307;SDS011;1666;48.898;9.182;2023-02-05T01:40:45;12.30;;;7.43;;
3307;SDS011;1666;48.898;9.182;2023-02-05T01:43:18;12.30;;;7.53;;
3307;SDS011;1666;48.898;9.182;2023-02-05T01:45:59;12.65;;;7.90;;
3307;SDS011;1666;48.898;9.182;2023-02-05T01:48:35;12.65;;;7.60;;
3307;SDS011;1666;48.898;9.182;2023-02-05T01:51:10;12.15;;;7.82;;
3307;SDS011;1666;48.898;9.182;2023-02-05T01:53:43;14.25;;;7.68;;
3307;SDS011;1666;48.898;9.182;2023-02-05T01:56:16;10.88;;;7.50;;
3307;SDS011;1666;48.898;9.182;2023-02-05T01:58:53;12.85;;;7.60;;
3307;SDS011;1666;48.898;9.182;2023-02-05T02:01:26;10.68;;;7.10;;
3307;SDS011;1666;48.898;9.182;2023-02-05T02:03:58;14.52;;;7.82;;
3307;SDS011;1666;48.898;9.182;2023-02-05T02:06:31;13.20;;;6.60;;
3307;SDS011;1666;48.898;9.182;2023-02-05T02:09:02;12.82;;;7.15;;
3307;SDS011;1666;48.898;9.182;2023-02-05T02:11:34;12.00;;;7.63;;
3307;SDS011;1666;48.898;9.182;2023-02-05T02:14:09;15.55;;;7.80;;
3307;SDS011;1666;48.898;9.182;2023-02-05T02:16:40;11.82;;;7.32;;
3307;SDS011;1666;48.898;9.182;2023-02-05T02:19:11;12.32;;;8.13;;
3307;SDS011;1666;48.898;9.182;2023-02-05T02:22:00;13.98;;;7.95;;
3307;SDS011;1666;48.898;9.182;2023-02-05T02:24:53;18.98;;;8.70;;
3307;SDS011;1666;48.898;9.182;2023-02-05T02:27:45;12.52;;;7.70;;
3307;SDS011;1666;48.898;9.182;2023-02-05T02:30:19;11.07;;;8.57;;
3307;SDS011;1666;48.898;9.182;2023-02-05T02:33:00;13.00;;;8.35;;
3307;SDS011;1666;48.898;9.182;2023-02-05T02:35:36;12.50;;;8.32;;
3307;SDS011;1666;48.898;9.182;2023-02-05T02:38:14;15.73;;;9.25;;
3307;SDS011;1666;48.898;9.182;2023-02-05T02:40:49;11.90;;;7.97;;
3307;SDS011;1666;48.898;9.182;2023-02-05T02:43:25;15.23;;;9.05;;
3307;SDS011;1666;48.898;9.182;2023-02-05T02:45:59;12.55;;;8.57;;
3307;SDS011;1666;48.898;9.182;2023-02-05T02:48:32;14.23;;;9.23;;
3307;SDS011;1666;48.898;9.182;2023-02-05T02:51:05;15.40;;;9.02;;
3307;SDS011;1666;48.898;9.182;2023-02-05T02:53:39;14.52;;;9.05;;
3307;SDS011;1666;48.898;9.182;2023-02-05T02:56:12;14.73;;;9.00;;
3307;SDS011;1666;48.898;9.182;2023-02-05T02:58:47;14.27;;;9.25;;
3307;SDS011;1666;48.898;9.182;2023-02-05T03:01:22;17.38;;;8.93;;
3307;SDS011;1666;48.898;9.182;2023-02-05T03:03:55;16.15;;;9.27;;
3307;SDS011;1666;48.898;9.182;2023-02-05T03:06:28;12.60;;;8.98;;
3307;SDS011;1666;48.898;9.182;2023-02-05T03:09:00;15.55;;;8.70;;
3307;SDS011;1666;48.898;9.182;2023-02-05T03:11:34;17.08;;;8.98;;
3307;SDS011;1666;48.898;9.182;2023-02-05T03:14:06;12.15;;;8.23;;
3307;SDS011;1666;48.898;9.182;2023-02-05T03:16:36;15.23;;;8.63;;
3307;SDS011;1666;48.898;9.182;2023-02-05T03:19:06;13.90;;;8.90;;
3307;SDS011;1666;48.898;9.182;2023-02-05T03:21:37;13.77;;;8.85;;
3307;SDS011;1666;48.898;9.182;2023-02-05T03:24:11;16.10;;;9.15;;
3307;SDS011;1666;48.898;9.182;2023-02-05T03:26:41;10.45;;;7.68;;
3307;SDS011;1666;48.898;9.182;2023-02-05T03:29:24;14.20;;;9.07;;
3307;SDS011;1666;48.898;9.182;2023-02-05T03:31:56;13.88;;;8.57;;
3307;SDS011;1666;48.898;9.182;2023-02-05T03:34:43;12.88;;;8.80;;
3307;SDS011;1666;48.898;9.182;2023-02-05T03:37:20;16.13;;;9.48;;
3307;SDS011;1666;48.898;9.182;2023-02-05T03:40:01;16.55;;;9.77;;
3307;SDS011;1666;48.898;9.182;2023-02-05T03:42:40;14.05;;;8.68;;
3307;SDS011;1666;48.898;9.182;2023-02-05T03:45:31;14.85;;;8.82;;
3307;SDS011;1666;48.898;9.182;2023-02-05T03:48:13;17.88;;;9.85;;
3307;SDS011;1666;48.898;9.182;2023-02-05T03:50:52;19.25;;;10.18;;
3307;SDS011;1666;48.898;9.182;2023-02-05T03:53:28;18.75;;;10.27;;
3307;SDS011;1666;48.898;9.182;2023-02-05T03:56:06;15.35;;;9.90;;
3307;SDS011;1666;48.898;9.182;2023-02-05T03:58:40;15.27;;;10.48;;
3307;SDS011;1666;48.898;9.182;2023-02-05T04:01:14;19.85;;;11.20;;
3307;SDS011;1666;48.898;9.182;2023-02-05T04:03:45;20.33;;;10.85;;
3307;SDS011;1666;48.898;9.182;2023-02-05T04:06:15;14.43;;;10.60;;
3307;SDS011;1666;48.898;9.182;2023-02-05T04:08:45;17.83;;;10.45;;
3307;SDS011;1666;48.898;9.182;2023-02-05T04:11:14;17.05;;;10.50;;
3307;SDS011;1666;48.898;9.182;2023-02-05T04:13:44;17.70;;;10.38;;
3307;SDS011;1666;48.898;9.182;2023-02-05T04:16:17;15.68;;;10.30;;
3307;SDS011;1666;48.898;9.182;2023-02-05T04:18:46;13.32;;;10.05;;
3307;SDS011;1666;48.898;9.182;2023-02-05T04:21:16;16.30;;;10.35;;
3307;SDS011;1666;48.898;9.182;2023-02-05T04:23:46;16.23;;;9.85;;
3307;SDS011;1666;48.898;9.182;2023-02-05T04:26:16;14.95;;;10.80;;
3307;SDS011;1666;48.898;9.182;2023-02-05T04:28:46;19.30;;;10.95;;
3307;SDS011;1666;48.898;9.182;2023-02-05T04:31:18;15.85;;;9.85;;
3307;SDS011;1666;48.898;9.182;2023-02-05T04:33:48;16.65;;;11.27;;
3307;SDS011;1666;48.898;9.182;2023-02-05T04:36:18;16.67;;;10.85;;
3307;SDS011;1666;48.898;9.182;2023-02-05T04:38:48;18.50;;;10.95;;
3307;SDS011;1666;48.898;9.182;2023-02-05T04:41:17;19.80;;;11.40;;
3307;SDS011;1666;48.898;9.182;2023-02-05T04:43:47;14.60;;;10.20;;
3307;SDS011;1666;48.898;9.182;2023-02-05T04:46:20;16.33;;;10.55;;
3307;SDS011;1666;48.898;9.182;2023-02-05T04:48:49;20.92;;;11.07;;
3307;SDS011;1666;48.898;9.182;2023-02-05T04:51:19;16.98;;;10.30;;
3307;SDS011;1666;48.898;9.182;2023-02-05T04:53:49;19.25;;;9.88;;
3307;SDS011;1666;48.898;9.182;2023-02-05T04:56:19;14.10;;;9.80;;
3307;SDS011;1666;48.898;9.182;2023-02-05T04:58:49;15.80;;;9.98;;
3307;SDS011;1666;48.898;9.182;2023-02-05T05:01:22;16.52;;;9.95;;
3307;SDS011;1666;48.898;9.182;2023-02-05T05:03:52;17.75;;;11.00;;
3307;SDS011;1666;48.898;9.182;2023-02-05T05:06:21;16.38;;;10.10;;
3307;SDS011;1666;48.898;9.182;2023-02-05T05:08:52;17.67;;;9.50;;
3307;SDS011;1666;48.898;9.182;2023-02-05T05:11:22;15.88;;;9.73;;
3307;SDS011;1666;48.898;9.182;2023-02-05T05:13:51;15.05;;;9.85;;
3307;SDS011;1666;48.898;9.182;2023-02-05T05:16:24;20.55;;;10.40;;
3307;SDS011;1666;48.898;9.182;2023-02-05T05:18:54;13.30;;;8.77;;
3307;SDS011;1666;48.898;9.182;2023-02-05T05:21:24;15.45;;;9.68;;
3307;SDS011;1666;48.898;9.182;2023-02-05T05:23:53;15.27;;;9.77;;
3307;SDS011;1666;48.898;9.182;2023-02-05T05:26:23;17.45;;;10.20;;
3307;SDS011;1666;48.898;9.182;2023-02-05T05:28:53;13.85;;;9.20;;
3307;SDS011;1666;48.898;9.182;2023-02-05T05:31:26;18.95;;;10.20;;
3307;SDS011;1666;48.898;9.182;2023-02-05T05:33:56;14.80;;;9.60;;
3307;SDS011;1666;48.898;9.182;2023-02-05T05:36:26;15.32;;;9.55;;
3307;SDS011;1666;48.898;9.182;2023-02-05T05:38:56;16.02;;;9.50;;
3307;SDS011;1666;48.898;9.182;2023-02-05T05:41:46;15.75;;;9.60;;
3307;SDS011;1666;48.898;9.182;2023-02-05T05:44:28;17.08;;;10.05;;
3307;SDS011;1666;48.898;9.182;2023-02-05T05:47:00;16.85;;;9.52;;
3307;SDS011;1666;48.898;9.182;2023-02-05T05:49:30;18.63;;;10.18;;
3307;SDS011;1666;48.898;9.182;2023-02-05T05:52:00;15.25;;;9.32;;
3307;SDS011;1666;48.898;9.182;2023-02-05T05:54:30;17.70;;;9.98;;
3307;SDS011;1666;48.898;9.182;2023-02-05T05:57:00;17.95;;;8.82;;
3307;SDS011;1666;48.898;9.182;2023-02-05T05:59:30;14.90;;;9.38;;
3307;SDS011;1666;48.898;9.182;2023-02-05T06:02:02;17.88;;;9.93;;
3307;SDS011;1666;48.898;9.182;2023-02-05T06:04:33;18.20;;;9.90;;
3307;SDS011;1666;48.898;9.182;2023-02-05T06:07:02;16.65;;;9.82;;
3307;SDS011;1666;48.898;9.182;2023-02-05T06:09:32;22.25;;;9.73;;
3307;SDS011;1666;48.898;9.182;2023-02-05T06:12:02;16.33;;;9.38;;
3307;SDS011;1666;48.898;9.182;2023-02-05T06:14:35;21.08;;;10.05;;
3307;SDS011;1666;48.898;9.182;2023-02-05T06:17:07;18.50;;;9.30;;
3307;SDS011;1666;48.898;9.182;2023-02-05T06:19:37;15.70;;;10.02;;
3307;SDS011;1666;48.898;9.182;2023-02-05T06:22:07;19.55;;;9.93;;
3307;SDS011;1666;48.898;9.182;2023-02-05T06:24:37;21.05;;;10.52;;
3307;SDS011;1666;48.898;9.182;2023-02-05T06:27:07;20.83;;;11.27;;
3307;SDS011;1666;48.898;9.182;2023-02-05T06:29:36;20.48;;;10.73;;
3307;SDS011;1666;48.898;9.182;2023-02-05T06:32:09;19.55;;;10.88;;
3307;SDS011;1666;48.898;9.182;2023-02-05T06:34:39;20.17;;;10.85;;
3307;SDS011;1666;48.898;9.182;2023-02-05T06:37:08;20.55;;;10.57;;
3307;SDS011;1666;48.898;9.182;2023-02-05T06:39:38;17.70;;;9.65;;
3307;SDS011;1666;48.898;9.182;2023-02-05T06:42:08;16.33;;;10.05;;
3307;SDS011;1666;48.898;9.182;2023-02-05T06:44:38;19.02;;;10.02;;
3307;SDS011;1666;48.898;9.182;2023-02-05T06:47:10;17.00;;;9.93;;
3307;SDS011;1666;48.898;9.182;2023-02-05T06:49:40;17.77;;;9.80;;
3307;SDS011;1666;48.898;9.182;2023-02-05T06:52:10;17.10;;;9.52;;
3307;SDS011;1666;48.898;9.182;2023-02-05T06:54:40;16.75;;;10.05;;
3307;SDS011;1666;48.898;9.182;2023-02-05T06:57:10;18.92;;;10.40;;
3307;SDS011;1666;48.898;9.182;2023-02-05T06:59:40;16.60;;;9.80;;
3307;SDS011;1666;48.898;9.182;2023-02-05T07:02:13;14.85;;;9.60;;
3307;SDS011;1666;48.898;9.182;2023-02-05T07:04:43;17.13;;;10.10;;
3307;SDS011;1666;48.898;9.182;2023-02-05T07:07:12;17.75;;;9.85;;
3307;SDS011;1666;48.898;9.182;2023-02-05T07:09:42;20.45;;;10.40;;
3307;SDS011;1666;48.898;9.182;2023-02-05T07:12:13;19.23;;;10.35;;
3307;SDS011;1666;48.898;9.182;2023-02-05T07:14:43;15.27;;;9.63;;
3307;SDS011;1666;48.898;9.182;2023-02-05T07:17:15;17.08;;;9.30;;
3307;SDS011;1666;48.898;9.182;2023-02-05T07:19:46;17.15;;;10.77;;
3307;SDS011;1666;48.898;9.182;2023-02-05T07:22:16;20.88;;;10.20;;
3307;SDS011;1666;48.898;9.182;2023-02-05T07:24:46;20.20;;;10.25;;
3307;SDS011;1666;48.898;9.182;2023-02-05T07:27:16;14.93;;;9.85;;
3307;SDS011;1666;48.898;9.182;2023-02-05T07:29:45;17.30;;;9.55;;
3307;SDS011;1666;48.898;9.182;2023-02-05T07:32:18;17.70;;;9.95;;
3307;SDS011;1666;48.898;9.182;2023-02-05T07:34:48;20.38;;;10.32;;
3307;SDS011;1666;48.898;9.182;2023-02-05T07:37:17;20.65;;;10.02;;
3307;SDS011;1666;48.898;9.182;2023-02-05T07:39:47;19.67;;;10.38;;
3307;SDS011;1666;48.898;9.182;2023-02-05T07:42:18;18.95;;;9.65;;
3307;SDS011;1666;48.898;9.182;2023-02-05T07:44:47;14.10;;;9.85;;
3307;SDS011;1666;48.898;9.182;2023-02-05T07:47:20;25.00;;;9.98;;
3307;SDS011;1666;48.898;9.182;2023-02-05T07:49:50;20.67;;;9.77;;
3307;SDS011;1666;48.898;9.182;2023-02-05T07:52:20;16.85;;;10.07;;
3307;SDS011;1666;48.898;9.182;2023-02-05T07:54:49;21.08;;;10.27;;
3307;SDS011;1666;48.898;9.182;2023-02-05T07:57:19;20.85;;;9.25;;
3307;SDS011;1666;48.898;9.182;2023-02-05T07:59:49;21.45;;;9.68;;
3307;SDS011;1666;48.898;9.182;2023-02-05T08:02:21;16.85;;;9.80;;
3307;SDS011;1666;48.898;9.182;2023-02-05T08:04:51;16.25;;;9.70;;
3307;SDS011;1666;48.898;9.182;2023-02-05T08:07:21;18.25;;;9.95;;
3307;SDS011;1666;48.898;9.182;2023-02-05T08:09:51;17.75;;;8.73;;
3307;SDS011;1666;48.898;9.182;2023-02-05T08:12:21;15.10;;;9.75;;
3307;SDS011;1666;48.898;9.182;2023-02-05T08:14:50;16.13;;;9.30;;
3307;SDS011;1666;48.898;9.182;2023-02-05T08:17:23;20.00;;;10.85;;
3307;SDS011;1666;48.898;9.182;2023-02-05T08:19:53;16.27;;;9.60;;
3307;SDS011;1666;48.898;9.182;2023-02-05T08:22:23;15.57;;;9.40;;
3307;SDS011;1666;48.898;9.182;2023-02-05T08:24:53;20.08;;;9.80;;
3307;SDS011;1666;48.898;9.182;2023-02-05T08:27:23;17.02;;;9.00;;
3307;SDS011;1666;48.898;9.182;2023-02-05T08:29:55;18.77;;;9.43;;
3307;SDS011;1666;48.898;9.182;2023-02-05T08:32:27;17.45;;;9.48;;
3307;SDS011;1666;48.898;9.182;2023-02-05T08:34:57;17.60;;;9.27;;
3307;SDS011;1666;48.898;9.182;2023-02-05T08:37:27;19.38;;;10.57;;
3307;SDS011;1666;48.898;9.182;2023-02-05T08:39:57;14.57;;;8.55;;
3307;SDS011;1666;48.898;9.182;2023-02-05T08:42:27;17.92;;;10.00;;
3307;SDS011;1666;48.898;9.182;2023-02-05T08:44:56;16.20;;;9.68;;
3307;SDS011;1666;48.898;9.182;2023-02-05T08:47:29;16.08;;;9.40;;
3307;SDS011;1666;48.898;9.182;2023-02-05T08:49:59;18.90;;;9.93;;
3307;SDS011;1666;48.898;9.182;2023-02-05T08:52:29;17.88;;;10.18;;
3307;SDS011;1666;48.898;9.182;2023-02-05T08:54:59;17.83;;;9.98;;
3307;SDS011;1666;48.898;9.182;2023-02-05T08:57:29;16.85;;;10.23;;
3307;SDS011;1666;48.898;9.182;2023-02-05T08:59:59;17.58;;;10.05;;
3307;SDS011;1666;48.898;9.182;2023-02-05T09:02:32;20.05;;;10.57;;
3307;SDS011;1666;48.898;9.182;2023-02-05T09:05:02;17.98;;;9.32;;
3307;SDS011;1666;48.898;9.182;2023-02-05T09:07:34;16.20;;;10.25;;
3307;SDS011;1666;48.898;9.182;2023-02-05T09:10:06;18.98;;;11.27;;
3307;SDS011;1666;48.898;9.182;2023-02-05T09:12:37;21.92;;;10.50;;
3307;SDS011;1666;48.898;9.182;2023-02-05T09:15:07;18.98;;;10.60;;
3307;SDS011;1666;48.898;9.182;2023-02-05T09:17:40;19.40;;;11.10;;
3307;SDS011;1666;48.898;9.182;2023-02-05T09:20:11;19.55;;;11.18;;
3307;SDS011;1666;48.898;9.182;2023-02-05T09:22:41;20.45;;;12.13;;
3307;SDS011;1666;48.898;9.182;2023-02-05T09:25:11;20.98;;;11.73;;
3307;SDS011;1666;48.898;9.182;2023-02-05T09:27:41;22.00;;;11.27;;
3307;SDS011;1666;48.898;9.182;2023-02-05T09:30:11;22.23;;;10.90;;
3307;SDS011;1666;48.898;9.182;2023-02-05T09:32:44;19.05;;;11.63;;
3307;SDS011;1666;48.898;9.182;2023-02-05T09:35:14;19.98;;;11.95;;
3307;SDS011;1666;48.898;9.182;2023-02-05T09:37:44;24.45;;;11.70;;
3307;SDS011;1666;48.898;9.182;2023-02-05T09:40:15;20.25;;;11.23;;
3307;SDS011;1666;48.898;9.182;2023-02-05T09:42:51;21.58;;;12.52;;
3307;SDS011;1666;48.898;9.182;2023-02-05T09:45:33;19.63;;;12.48;;
3307;SDS011;1666;48.898;9.182;2023-02-05T09:48:18;23.95;;;11.93;;
3307;SDS011;1666;48.898;9.182;2023-02-05T09:51:02;15.80;;;11.57;;
3307;SDS011;1666;48.898;9.182;2023-02-05T09:53:37;20.50;;;12.50;;
3307;SDS011;1666;48.898;9.182;2023-02-05T09:56:11;25.52;;;12.60;;
3307;SDS011;1666;48.898;9.182;2023-02-05T09:58:43;21.58;;;12.52;;
3307;SDS011;1666;48.898;9.182;2023-02-05T10:01:17;26.23;;;11.77;;
3307;SDS011;1666;48.898;9.182;2023-02-05T10:03:54;24.13;;;13.50;;
3307;SDS011;1666;48.898;9.182;2023-02-05T10:09:33;24.40;;;13.15;;
3307;SDS011;1666;48.898;9.182;2023-02-05T10:12:13;20.58;;;12.68;;
3307;SDS011;1666;48.898;9.182;2023-02-05T10:15:00;22.42;;;11.63;;
3307;SDS011;1666;48.898;9.182;2023-02-05T10:17:42;22.20;;;12.68;;
3307;SDS011;1666;48.898;9.182;2023-02-05T10:20:28;19.33;;;11.60;;
3307;SDS011;1666;48.898;9.182;2023-02-05T10:23:25;25.02;;;12.00;;
3307;SDS011;1666;48.898;9.182;2023-02-05T10:26:08;22.92;;;12.77;;
3307;SDS011;1666;48.898;9.182;2023-02-05T10:28:43;19.95;;;12.10;;
3307;SDS011;1666;48.898;9.182;2023-02-05T10:31:33;17.10;;;11.60;;
3307;SDS011;1666;48.898;9.182;2023-02-05T10:34:20;25.63;;;13.05;;
3307;SDS011;1666;48.898;9.182;2023-02-05T10:37:09;28.02;;;14.23;;
3307;SDS011;1666;48.898;9.182;2023-02-05T10:39:42;19.35;;;12.75;;
3307;SDS011;1666;48.898;9.182;2023-02-05T10:42:21;26.73;;;13.90;;
3307;SDS011;1666;48.898;9.182;2023-02-05T10:44:58;20.17;;;12.82;;
3307;SDS011;1666;48.898;9.182;2023-02-05T10:47:39;25.95;;;13.00;;
3307;SDS011;1666;48.898;9.182;2023-02-05T10:50:19;26.83;;;13.23;;
3307;SDS011;1666;48.898;9.182;2023-02-05T10:52:56;21.58;;;13.48;;
3307;SDS011;1666;48.898;9.182;2023-02-05T10:55:26;22.95;;;13.63;;
3307;SDS011;1666;48.898;9.182;2023-02-05T10:57:56;24.65;;;13.02;;
3307;SDS011;1666;48.898;9.182;2023-02-05T11:00:26;21.40;;;12.13;;
3307;SDS011;1666;48.898;9.182;2023-02-05T11:02:56;21.48;;;12.57;;
3307;SDS011;1666;48.898;9.182;2023-02-05T11:05:29;24.55;;;13.80;;
3307;SDS011;1666;48.898;9.182;2023-02-05T11:08:06;25.05;;;13.40;;
3307;SDS011;1666;48.898;9.182;2023-02-05T11:11:00;24.73;;;14.18;;
3307;SDS011;1666;48.898;9.182;2023-02-05T11:13:30;24.50;;;14.60;;
3307;SDS011;1666;48.898;9.182;2023-02-05T11:16:04;21.40;;;12.70;;
3307;SDS011;1666;48.898;9.182;2023-02-05T11:18:38;26.30;;;13.05;;
3307;SDS011;1666;48.898;9.182;2023-02-05T11:21:11;24.55;;;13.80;;
3307;SDS011;1666;48.898;9.182;2023-02-05T11:23:52;24.67;;;12.98;;
3307;SDS011;1666;48.898;9.182;2023-02-05T11:26:24;27.20;;;14.00;;
3307;SDS011;1666;48.898;9.182;2023-02-05T11:28:56;26.77;;;13.60;;
3307;SDS011;1666;48.898;9.182;2023-02-05T11:31:27;27.27;;;13.48;;
3307;SDS011;1666;48.898;9.182;2023-02-05T11:34:13;24.77;;;13.02;;
3307;SDS011;1666;48.898;9.182;2023-02-05T11:36:46;26.53;;;13.20;;
3307;SDS011;1666;48.898;9.182;2023-02-05T11:39:28;23.33;;;12.75;;
3307;SDS011;1666;48.898;9.182;2023-02-05T11:42:07;21.45;;;13.82;;
3307;SDS011;1666;48.898;9.182;2023-02-05T11:44:41;25.10;;;14.00;;
3307;SDS011;1666;48.898;9.182;2023-02-05T11:47:19;24.35;;;13.35;;
3307;SDS011;1666;48.898;9.182;2023-02-05T11:49:53;23.23;;;13.63;;
3307;SDS011;1666;48.898;9.182;2023-02-05T11:52:25;19.00;;;12.73;;
3307;SDS011;1666;48.898;9.182;2023-02-05T11:55:00;23.95;;;13.07;;
3307;SDS011;1666;48.898;9.182;2023-02-05T11:57:31;23.70;;;12.90;;
3307;SDS011;1666;48.898;9.182;2023-02-05T12:00:17;23.83;;;12.73;;
3307;SDS011;1666;48.898;9.182;2023-02-05T12:02:49;23.33;;;12.82;;
3307;SDS011;1666;48.898;9.182;2023-02-05T12:05:34;24.65;;;13.43;;
3307;SDS011;1666;48.898;9.182;2023-02-05T12:08:09;22.13;;;13.77;;
3307;SDS011;1666;48.898;9.182;2023-02-05T12:10:45;22.23;;;13.13;;
3307;SDS011;1666;48.898;9.182;2023-02-05T12:13:21;22.58;;;14.75;;
3307;SDS011;1666;48.898;9.182;2023-02-05T12:15:58;26.15;;;14.40;;
3307;SDS011;1666;48.898;9.182;2023-02-05T12:18:39;28.60;;;15.38;;
3307;SDS011;1666;48.898;9.182;2023-02-05T12:21:22;26.13;;;16.10;;
3307;SDS011;1666;48.898;9.182;2023-02-05T12:24:07;28.35;;;14.35;;
3307;SDS011;1666;48.898;9.182;2023-02-05T12:26:50;23.67;;;15.45;;
3307;SDS011;1666;48.898;9.182;2023-02-05T12:29:31;32.75;;;17.88;;
3307;SDS011;1666;48.898;9.182;2023-02-05T12:32:15;33.40;;;17.60;;
3307;SDS011;1666;48.898;9.182;2023-02-05T12:34:59;31.80;;;19.85;;
3307;SDS011;1666;48.898;9.182;2023-02-05T12:37:39;30.65;;;20.92;;
3307;SDS011;1666;48.898;9.182;2023-02-05T12:40:26;32.63;;;18.33;;
3307;SDS011;1666;48.898;9.182;2023-02-05T12:43:09;28.52;;;16.33;;
3307;SDS011;1666;48.898;9.182;2023-02-05T12:45:50;31.20;;;18.92;;
3307;SDS011;1666;48.898;9.182;2023-02-05T12:48:39;34.05;;;17.17;;
3307;SDS011;1666;48.898;9.182;2023-02-05T12:51:27;29.58;;;18.33;;
3307;SDS011;1666;48.898;9.182;2023-02-05T12:54:10;29.45;;;16.55;;
3307;SDS011;1666;48.898;9.182;2023-02-05T12:56:54;28.55;;;15.55;;
3307;SDS011;1666;48.898;9.182;2023-02-05T12:59:32;30.63;;;18.15;;
3307;SDS011;1666;48.898;9.182;2023-02-05T13:02:13;30.08;;;16.38;;
3307;SDS011;1666;48.898;9.182;2023-02-05T13:04:48;30.60;;;17.77;;
3307;SDS011;1666;48.898;9.182;2023-02-05T13:07:25;28.40;;;14.82;;
3307;SDS011;1666;48.898;9.182;2023-02-05T13:10:02;27.38;;;14.88;;
3307;SDS011;1666;48.898;9.182;2023-02-05T13:12:34;25.40;;;14.30;;
3307;SDS011;1666;48.898;9.182;2023-02-05T13:15:15;23.83;;;14.18;;
3307;SDS011;1666;48.898;9.182;2023-02-05T13:17:53;24.85;;;13.82;;
3307;SDS011;1666;48.898;9.182;2023-02-05T13:20:29;24.00;;;14.45;;
3307;SDS011;1666;48.898;9.182;2023-02-05T13:23:16;23.77;;;14.40;;
3307;SDS011;1666;48.898;9.182;2023-02-05T13:26:00;30.00;;;15.23;;
3307;SDS011;1666;48.898;9.182;2023-02-05T13:28:44;24.15;;;14.13;;
3307;SDS011;1666;48.898;9.182;2023-02-05T13:31:23;26.08;;;15.35;;
3307;SDS011;1666;48.898;9.182;2023-02-05T13:33:59;27.40;;;15.07;;
3307;SDS011;1666;48.898;9.182;2023-02-05T13:39:43;21.50;;;12.52;;
3307;SDS011;1666;48.898;9.182;2023-02-05T13:42:44;23.15;;;13.55;;
3307;SDS011;1666;48.898;9.182;2023-02-05T13:45:30;25.88;;;12.30;;
3307;SDS011;1666;48.898;9.182;2023-02-05T13:48:24;16.55;;;10.15;;
3307;SDS011;1666;48.898;9.182;2023-02-05T13:51:11;20.83;;;9.57;;
3307;SDS011;1666;48.898;9.182;2023-02-05T13:54:02;13.25;;;8.43;;
3307;SDS011;1666;48.898;9.182;2023-02-05T13:56:47;11.68;;;7.07;;
3307;SDS011;1666;48.898;9.182;2023-02-05T13:59:32;13.57;;;8.00;;
3307;SDS011;1666;48.898;9.182;2023-02-05T14:02:17;10.02;;;7.20;;
3307;SDS011;1666;48.898;9.182;2023-02-05T14:05:00;11.60;;;7.10;;
3307;SDS011;1666;48.898;9.182;2023-02-05T14:07:31;13.70;;;7.73;;
3307;SDS011;1666;48.898;9.182;2023-02-05T14:10:03;21.08;;;11.18;;
3307;SDS011;1666;48.898;9.182;2023-02-05T14:12:35;7.45;;;5.15;;
3307;SDS011;1666;48.898;9.182;2023-02-05T14:15:21;7.60;;;4.45;;
3307;SDS011;1666;48.898;9.182;2023-02-05T14:18:03;9.40;;;4.93;;
3307;SDS011;1666;48.898;9.182;2023-02-05T14:20:37;9.85;;;5.75;;
3307;SDS011;1666;48.898;9.182;2023-02-05T14:23:11;9.55;;;5.13;;
3307;SDS011;1666;48.898;9.182;2023-02-05T14:28:47;9.90;;;5.15;;
3307;SDS011;1666;48.898;9.182;2023-02-05T14:34:27;7.45;;;4.72;;
3307;SDS011;1666;48.898;9.182;2023-02-05T14:37:38;6.15;;;4.63;;
3307;SDS011;1666;48.898;9.182;2023-02-05T14:40:10;7.47;;;4.45;;
3307;SDS011;1666;48.898;9.182;2023-02-05T14:42:53;7.03;;;4.90;;
3307;SDS011;1666;48.898;9.182;2023-02-05T14:45:40;7.93;;;4.50;;
3307;SDS011;1666;48.898;9.182;2023-02-05T14:48:16;7.63;;;4.88;;
3307;SDS011;1666;48.898;9.182;2023-02-05T14:50:59;7.18;;;5.18;;
3307;SDS011;1666;48.898;9.182;2023-02-05T14:53:36;6.75;;;4.72;;
3307;SDS011;1666;48.898;9.182;2023-02-05T14:56:07;7.45;;;5.13;;
3307;SDS011;1666;48.898;9.182;2023-02-05T14:58:55;11.63;;;5.43;;
3307;SDS011;1666;48.898;9.182;2023-02-05T15:01:43;6.70;;;4.55;;
3307;SDS011;1666;48.898;9.182;2023-02-05T15:04:23;7.10;;;4.90;;
3307;SDS011;1666;48.898;9.182;2023-02-05T15:07:11;6.57;;;4.78;;
3307;SDS011;1666;48.898;9.182;2023-02-05T15:09:49;8.43;;;5.53;;
3307;SDS011;1666;48.898;9.182;2023-02-05T15:15:26;8.00;;;4.95;;
3307;SDS011;1666;48.898;9.182;2023-02-05T15:18:02;12.15;;;5.35;;
3307;SDS011;1666;48.898;9.182;2023-02-05T15:20:37;8.30;;;5.53;;
3307;SDS011;1666;48.898;9.182;2023-02-05T15:23:23;7.15;;;4.63;;
3307;SDS011;1666;48.898;9.182;2023-02-05T15:26:03;9.85;;;5.60;;
3307;SDS011;1666;48.898;9.182;2023-02-05T15:28:35;9.43;;;5.90;;
3307;SDS011;1666;48.898;9.182;2023-02-05T15:31:15;8.80;;;5.63;;
3307;SDS011;1666;48.898;9.182;2023-02-05T15:33:56;9.23;;;6.10;;
3307;SDS011;1666;48.898;9.182;2023-02-05T15:36:31;7.85;;;6.10;;
3307;SDS011;1666;48.898;9.182;2023-02-05T15:39:08;12.73;;;7.70;;
3307;SDS011;1666;48.898;9.182;2023-02-05T15:41:47;10.98;;;7.00;;
3307;SDS011;1666;48.898;9.182;2023-02-05T15:44:20;12.07;;;7.68;;
3307;SDS011;1666;48.898;9.182;2023-02-05T15:46:55;9.13;;;6.20;;
3307;SDS011;1666;48.898;9.182;2023-02-05T15:49:29;12.90;;;9.02;;
3307;SDS011;1666;48.898;9.182;2023-02-05T15:52:03;10.80;;;7.55;;
3307;SDS011;1666;48.898;9.182;2023-02-05T15:54:34;8.90;;;6.60;;